Main page
METAR-TAF:

METAR-TAF

Airports :

Oxford Airport

Oxford, England

latitude: 51-50-13N, longitude: 1-19-12W, elevation: 82 m

Current weather observation

The report was made 12 minutes ago, at 19:50 UTC
Wind 5 kt from the North/Northwest, varying between West/Northwest and North
Temperature 5°C
Humidity 87%
Pressure 1037 hPa
Visibility 10 km or more
Overcast at a height of 1800 ft

METAR: EGTK 221950Z 33005KT 300V360 9999 OVC018 05/03 Q1037

Time: 20:02 (20:02 UTC)

Forecast

The report was made 3 hours and 1 minutes ago, at 17:01 UTC
Forecast valid from 22 at 18 UTC to 22 at 23 UTC
Wind 5 kt from the West/Northwest
Visibility 10 km or more
Broken clouds at a height of 2000 ft

TAF: EGTK 221701Z 2218/2223 30005KT 9999 BKN020

Weather observations and forecasts of more than 4000 airports (METAR and TAF reports).

The available stations are represented by yellow and red dots on the map.

Hover mouse over dot to see the name of the station.

Then click to see weather observations and forecasts.

To change the map : click on the green buttons with a black cross to zoom in, on the green button with a dash to zoom out, or on the green arrows for adjacent maps.


METAR-TAF: